createdAt,value
2023-01-01T00:01:49.048Z,48.08
2023-01-01T00:04:19.077Z,48.12
2023-01-01T00:06:49.158Z,47.79
2023-01-01T00:09:31.511Z,47.55
2023-01-01T00:12:04.148Z,47.35
2023-01-01T00:14:34.157Z,47.50
2023-01-01T00:17:04.195Z,47.15
2023-01-01T00:19:34.256Z,47.39
2023-01-01T00:22:27.789Z,47.26
2023-01-01T00:24:54.494Z,47.42
2023-01-01T00:27:27.526Z,47.51
2023-01-01T00:29:57.476Z,47.42
2023-01-01T00:32:27.725Z,47.37
2023-01-01T00:34:57.795Z,46.81
2023-01-01T00:37:27.772Z,46.54
2023-01-01T00:39:57.957Z,46.39
2023-01-01T00:42:30.715Z,46.18
2023-01-01T00:45:00.778Z,46.07
2023-01-01T00:47:30.790Z,45.48
2023-01-01T00:50:00.748Z,45.68
2023-01-01T00:52:30.686Z,45.60
2023-01-01T00:55:00.823Z,45.52
2023-01-01T00:57:33.411Z,45.38
2023-01-01T01:00:03.516Z,45.22
2023-01-01T01:02:33.860Z,45.12
2023-01-01T01:05:04.905Z,44.64
2023-01-01T01:07:41.545Z,44.86
2023-01-01T01:10:12.566Z,44.53
2023-01-01T01:12:45.433Z,44.22
2023-01-01T01:15:15.653Z,43.96
2023-01-01T01:17:45.589Z,44.10
2023-01-01T01:20:15.655Z,43.80
2023-01-01T01:22:45.625Z,43.88
2023-01-01T01:25:15.779Z,43.63
2023-01-01T01:27:48.592Z,43.59
2023-01-01T01:30:18.789Z,43.35
2023-01-01T01:32:48.900Z,43.37
2023-01-01T01:35:19.036Z,42.79
2023-01-01T01:37:48.980Z,43.33
2023-01-01T01:40:19.618Z,43.24
2023-01-01T01:42:54.421Z,42.85
2023-01-01T01:45:29.738Z,42.81
2023-01-01T01:48:03.937Z,42.51
2023-01-01T01:50:37.095Z,42.49
2023-01-01T01:53:11.906Z,42.65
2023-01-01T01:55:47.094Z,42.25
2023-01-01T01:58:20.392Z,42.35
2023-01-01T02:00:51.181Z,42.51
2023-01-01T02:03:25.443Z,42.02
2023-01-01T02:05:57.415Z,42.33
2023-01-01T02:08:28.546Z,42.49
2023-01-01T02:10:58.539Z,42.07
2023-01-01T02:13:31.463Z,41.93
2023-01-01T02:16:09.485Z,41.95
2023-01-01T02:18:46.487Z,42.22
2023-01-01T02:21:20.063Z,42.45
2023-01-01T02:24:10.814Z,41.92
2023-01-01T02:26:50.254Z,41.88
2023-01-01T02:29:33.242Z,42.44
2023-01-01T02:32:07.983Z,42.08
2023-01-01T02:34:41.469Z,42.03
2023-01-01T02:37:15.015Z,41.85
2023-01-01T02:39:50.441Z,41.73
2023-01-01T02:42:22.040Z,41.69
2023-01-01T02:44:57.367Z,41.41
2023-01-01T02:47:27.578Z,41.40
2023-01-01T02:50:11.166Z,41.37
2023-01-01T02:53:03.938Z,41.72
2023-01-01T02:55:46.157Z,41.38
2023-01-01T02:58:38.537Z,41.75
2023-01-01T03:01:15.903Z,42.04
2023-01-01T03:03:55.642Z,41.63
2023-01-01T03:06:52.742Z,41.46
2023-01-01T03:09:31.082Z,41.36
2023-01-01T03:12:06.631Z,41.51
2023-01-01T03:14:45.393Z,41.47
2023-01-01T03:17:27.180Z,41.62
2023-01-01T03:19:59.212Z,41.80
2023-01-01T03:22:34.853Z,41.75
2023-01-01T03:25:10.826Z,41.65
2023-01-01T03:27:44.763Z,41.74
2023-01-01T03:30:17.577Z,41.98
2023-01-01T03:33:03.968Z,41.84
2023-01-01T03:35:41.531Z,41.49
2023-01-01T03:38:17.148Z,41.54
2023-01-01T03:40:50.175Z,41.73
2023-01-01T03:43:25.038Z,41.63
2023-01-01T03:45:56.350Z,41.73
2023-01-01T03:48:28.961Z,41.89
2023-01-01T03:51:12.379Z,41.58
2023-01-01T03:53:46.717Z,41.91
2023-01-01T03:56:20.721Z,42.24
2023-01-01T03:58:55.309Z,42.38
2023-01-01T04:01:30.304Z,42.35
2023-01-01T04:04:06.299Z,42.29
2023-01-01T04:06:37.107Z,42.00
2023-01-01T04:09:11.700Z,41.90
2023-01-01T04:11:59.365Z,41.81
2023-01-01T04:14:31.057Z,42.37
2023-01-01T04:17:01.123Z,42.03
2023-01-01T04:19:34.103Z,41.80
2023-01-01T04:22:04.443Z,42.07
2023-01-01T04:24:34.431Z,42.23
2023-01-01T04:27:04.445Z,42.54
2023-01-01T04:29:34.366Z,42.26
2023-01-01T04:32:04.298Z,42.05
2023-01-01T04:34:36.971Z,42.06
2023-01-01T04:37:11.359Z,42.29
2023-01-01T04:39:43.063Z,42.29
2023-01-01T04:42:13.017Z,42.09
2023-01-01T04:44:42.996Z,42.45
2023-01-01T04:47:13.358Z,42.34
2023-01-01T04:49:45.919Z,42.27
2023-01-01T04:52:15.965Z,42.54
2023-01-01T04:54:45.887Z,42.39
2023-01-01T04:57:16.061Z,42.90
2023-01-01T04:59:45.998Z,42.64
2023-01-01T05:02:15.995Z,42.64
2023-01-01T05:04:48.608Z,42.40
2023-01-01T05:07:18.569Z,42.94
2023-01-01T05:09:48.536Z,42.97
2023-01-01T05:12:21.159Z,43.01
2023-01-01T05:14:51.098Z,42.70
2023-01-01T05:17:21.054Z,42.77
2023-01-01T05:19:53.573Z,42.61
2023-01-01T05:22:23.527Z,42.90
2023-01-01T05:24:53.477Z,42.61
2023-01-01T05:27:23.436Z,41.99
2023-01-01T05:29:53.416Z,42.27
2023-01-01T05:32:23.377Z,42.31
2023-01-01T05:34:56.382Z,42.54
2023-01-01T05:37:26.422Z,42.83
2023-01-01T05:39:56.324Z,42.92
2023-01-01T05:42:28.227Z,43.19
2023-01-01T05:44:58.142Z,43.41
2023-01-01T05:47:29.922Z,43.60
2023-01-01T05:52:31.652Z,43.62
2023-01-01T05:55:01.646Z,43.71
2023-01-01T05:57:32.017Z,43.96
2023-01-01T06:00:02.363Z,44.44
2023-01-01T06:02:36.857Z,44.46
2023-01-01T06:05:12.007Z,44.73
2023-01-01T06:07:46.509Z,44.95
2023-01-01T06:10:18.588Z,44.85
2023-01-01T06:12:48.528Z,44.93
2023-01-01T06:15:18.643Z,44.69
2023-01-01T06:17:48.564Z,44.77
2023-01-01T06:20:21.608Z,44.69
2023-01-01T06:22:51.567Z,44.88
2023-01-01T06:25:21.510Z,45.31
2023-01-01T06:27:51.462Z,45.05
2023-01-01T06:30:21.648Z,45.09
2023-01-01T06:32:51.562Z,45.02
2023-01-01T06:35:24.123Z,45.13
2023-01-01T06:37:54.069Z,45.22
2023-01-01T06:40:24.288Z,44.91
2023-01-01T06:42:54.221Z,44.77
2023-01-01T06:45:28.431Z,45.03
2023-01-01T06:48:00.048Z,44.93
2023-01-01T06:50:32.810Z,44.65
2023-01-01T06:53:04.341Z,44.62
2023-01-01T06:55:35.677Z,44.96
2023-01-01T06:58:09.321Z,44.96
2023-01-01T07:00:39.922Z,44.92
2023-01-01T07:03:12.610Z,45.08
2023-01-01T07:05:45.322Z,45.05
2023-01-01T07:08:15.195Z,45.06
2023-01-01T07:10:45.146Z,45.05
2023-01-01T07:13:15.076Z,45.27
2023-01-01T07:15:46.658Z,45.12
2023-01-01T07:18:16.617Z,44.97
2023-01-01T07:20:51.920Z,45.03
2023-01-01T07:23:22.008Z,44.67
2023-01-01T07:25:53.209Z,44.33
2023-01-01T07:28:24.789Z,44.51
2023-01-01T07:30:55.438Z,44.67
2023-01-01T07:33:26.749Z,44.80
2023-01-01T07:35:59.295Z,44.45
2023-01-01T07:38:29.228Z,44.74
2023-01-01T07:40:59.636Z,44.74
2023-01-01T07:43:29.579Z,44.71
2023-01-01T07:46:00.391Z,44.84
2023-01-01T07:48:34.758Z,44.49
2023-01-01T07:51:12.250Z,44.46
2023-01-01T07:53:42.194Z,44.39
2023-01-01T07:56:12.550Z,44.50
2023-01-01T07:58:42.781Z,44.54
2023-01-01T08:01:14.653Z,44.47
2023-01-01T08:03:55.718Z,44.67
2023-01-01T08:06:28.302Z,44.38
2023-01-01T08:08:58.262Z,44.79
2023-01-01T08:11:28.199Z,44.48
2023-01-01T08:13:58.104Z,44.45
2023-01-01T08:16:28.094Z,44.07
2023-01-01T08:19:18.242Z,44.22
2023-01-01T08:21:50.797Z,44.28
2023-01-01T08:24:20.733Z,44.02
2023-01-01T08:26:52.238Z,43.80
2023-01-01T08:29:23.181Z,43.94
2023-01-01T08:31:53.276Z,44.10
2023-01-01T08:34:23.258Z,44.26
2023-01-01T08:36:55.832Z,43.91
2023-01-01T08:39:25.760Z,44.00
2023-01-01T08:41:55.740Z,44.06
2023-01-01T08:44:25.692Z,43.98
2023-01-01T08:46:56.015Z,43.99
2023-01-01T08:49:26.066Z,43.74
2023-01-01T08:51:58.617Z,43.89
2023-01-01T08:54:28.506Z,44.09
2023-01-01T08:56:58.465Z,44.09
2023-01-01T08:59:28.414Z,43.85
2023-01-01T09:01:59.998Z,43.66
2023-01-01T09:04:30.415Z,43.72
2023-01-01T09:07:04.587Z,43.92
2023-01-01T09:09:34.498Z,43.91
2023-01-01T09:12:08.432Z,43.85
2023-01-01T09:14:38.467Z,43.50
2023-01-01T09:17:08.431Z,43.93
2023-01-01T09:19:38.342Z,43.81
2023-01-01T09:22:12.093Z,43.61
2023-01-01T09:24:42.399Z,43.73
2023-01-01T09:27:12.410Z,43.71
2023-01-01T09:29:42.378Z,43.82
2023-01-01T09:32:12.347Z,43.78
2023-01-01T09:34:46.018Z,43.52
2023-01-01T09:37:21.412Z,43.71
2023-01-01T09:39:51.432Z,43.78
2023-01-01T09:42:32.368Z,43.59
2023-01-01T09:45:26.124Z,43.83
2023-01-01T09:48:00.604Z,44.06
2023-01-01T09:50:35.774Z,44.00
2023-01-01T09:53:16.328Z,44.07
2023-01-01T09:55:50.577Z,43.91
2023-01-01T09:58:24.679Z,43.84
2023-01-01T10:00:57.115Z,43.79
2023-01-01T10:03:40.644Z,43.69
2023-01-01T10:06:21.586Z,43.96
2023-01-01T10:09:07.368Z,43.71
2023-01-01T10:11:45.626Z,43.72
2023-01-01T10:14:24.705Z,43.26
2023-01-01T10:16:58.136Z,43.01
2023-01-01T10:19:34.820Z,43.03
2023-01-01T10:22:08.765Z,42.88
2023-01-01T10:24:47.235Z,42.50
2023-01-01T10:27:32.255Z,42.86
2023-01-01T10:30:06.726Z,43.23
2023-01-01T10:32:39.236Z,43.36
2023-01-01T10:35:16.294Z,43.68
2023-01-01T10:37:46.902Z,43.42
2023-01-01T10:40:22.243Z,43.45
2023-01-01T10:42:53.995Z,43.19
2023-01-01T10:45:33.565Z,43.02
2023-01-01T10:48:18.555Z,43.16
2023-01-01T10:50:52.500Z,43.49
2023-01-01T10:53:26.729Z,43.49
2023-01-01T10:56:08.608Z,43.70
2023-01-01T10:58:44.760Z,43.61
2023-01-01T11:01:22.276Z,43.66
2023-01-01T11:03:58.481Z,44.05
2023-01-01T11:06:30.596Z,43.82
2023-01-01T11:09:03.559Z,43.69
2023-01-01T11:11:44.555Z,43.63
2023-01-01T11:14:24.648Z,43.49
2023-01-01T11:16:56.250Z,43.72
2023-01-01T11:19:31.143Z,43.87
2023-01-01T11:22:01.691Z,43.83
2023-01-01T11:24:33.325Z,43.86
2023-01-01T11:27:24.680Z,43.67
2023-01-01T11:29:55.790Z,43.43
2023-01-01T11:32:31.584Z,43.59
2023-01-01T11:35:03.333Z,43.55
2023-01-01T11:37:36.929Z,43.18
2023-01-01T11:40:20.972Z,43.07
2023-01-01T11:42:58.316Z,42.77
2023-01-01T11:45:37.269Z,42.98
2023-01-01T11:48:14.462Z,43.34
2023-01-01T11:50:54.228Z,43.19
2023-01-01T11:53:32.468Z,42.74
2023-01-01T11:56:10.863Z,42.62
2023-01-01T11:58:51.376Z,42.58
2023-01-01T12:01:28.452Z,42.18
2023-01-01T12:04:05.226Z,41.90
2023-01-01T12:06:41.616Z,42.12
2023-01-01T12:09:18.845Z,42.34
2023-01-01T12:11:54.677Z,42.71
2023-01-01T12:14:34.284Z,42.52
2023-01-01T12:17:07.508Z,42.02
2023-01-01T12:19:42.999Z,41.94
2023-01-01T12:22:18.760Z,42.39
2023-01-01T12:24:50.647Z,42.88
2023-01-01T12:27:31.798Z,42.24
2023-01-01T12:30:16.530Z,42.59
2023-01-01T12:33:08.595Z,42.79
2023-01-01T12:35:49.916Z,42.48
2023-01-01T12:38:36.527Z,42.57
2023-01-01T12:41:15.165Z,42.90
2023-01-01T12:43:52.226Z,43.23
2023-01-01T12:46:37.471Z,42.96
2023-01-01T12:49:25.248Z,43.04
2023-01-01T12:52:06.897Z,43.06
2023-01-01T12:55:10.093Z,43.36
2023-01-01T12:57:45.458Z,43.72
2023-01-01T13:00:17.712Z,43.50
2023-01-01T13:02:55.597Z,43.44
2023-01-01T13:05:30.042Z,43.63
2023-01-01T13:08:06.235Z,43.31
2023-01-01T13:10:38.631Z,43.21
2023-01-01T13:13:14.355Z,43.12
2023-01-01T13:15:53.346Z,43.72
2023-01-01T13:18:32.828Z,44.10
2023-01-01T13:21:22.251Z,44.48
2023-01-01T13:23:54.403Z,44.44
2023-01-01T13:26:44.123Z,44.52
2023-01-01T13:29:34.874Z,44.45
2023-01-01T13:32:12.607Z,44.74
2023-01-01T13:35:05.749Z,44.69
2023-01-01T13:37:46.874Z,44.69
2023-01-01T13:40:56.708Z,44.82
2023-01-01T13:43:31.286Z,44.52
2023-01-01T13:46:14.696Z,44.35
2023-01-01T13:49:14.243Z,44.59
2023-01-01T13:52:16.025Z,44.40
2023-01-01T13:55:18.138Z,44.81
2023-01-01T13:58:24.366Z,44.85
2023-01-01T14:01:17.911Z,44.72
2023-01-01T14:03:52.323Z,44.83
2023-01-01T14:06:32.061Z,44.92
2023-01-01T14:09:10.481Z,44.96
2023-01-01T14:11:40.534Z,44.79
2023-01-01T14:14:24.462Z,45.44
2023-01-01T14:16:55.570Z,45.41
2023-01-01T14:19:29.909Z,45.14
2023-01-01T14:22:00.368Z,44.93
2023-01-01T14:24:33.035Z,45.27
2023-01-01T14:27:03.210Z,45.93
2023-01-01T14:29:35.809Z,45.62
2023-01-01T14:32:16.903Z,45.34
2023-01-01T14:34:49.504Z,45.84
2023-01-01T14:37:26.145Z,46.02
2023-01-01T14:40:26.574Z,46.27
2023-01-01T14:43:02.903Z,46.27
2023-01-01T14:45:38.946Z,46.20
2023-01-01T14:48:09.662Z,46.49
2023-01-01T14:50:39.741Z,46.12
2023-01-01T14:53:14.542Z,46.05
2023-01-01T14:55:48.751Z,45.99
2023-01-01T14:58:25.426Z,46.20
2023-01-01T15:00:55.909Z,46.13
2023-01-01T15:03:27.212Z,46.28
2023-01-01T15:06:02.456Z,46.63
2023-01-01T15:08:32.722Z,46.65
2023-01-01T15:11:08.618Z,46.83
2023-01-01T15:13:41.860Z,46.91
2023-01-01T15:16:20.457Z,46.54
2023-01-01T15:18:52.382Z,46.66
2023-01-01T15:21:41.454Z,46.89
2023-01-01T15:24:16.078Z,46.59
2023-01-01T15:26:54.801Z,46.76
2023-01-01T15:29:30.954Z,46.60
2023-01-01T15:32:04.021Z,46.59
2023-01-01T15:34:38.281Z,46.65
2023-01-01T15:37:15.361Z,46.80
2023-01-01T15:39:50.017Z,46.97
2023-01-01T15:42:38.856Z,47.09
2023-01-01T15:45:24.979Z,47.03
2023-01-01T15:47:56.500Z,47.91
2023-01-01T15:50:28.884Z,47.30
2023-01-01T15:53:01.898Z,47.05
2023-01-01T15:55:34.712Z,46.96
2023-01-01T15:58:07.959Z,47.11
2023-01-01T16:00:43.778Z,47.20
2023-01-01T16:03:23.684Z,47.27
2023-01-01T16:05:56.464Z,47.15
2023-01-01T16:08:26.885Z,47.21
2023-01-01T16:10:56.960Z,47.42
2023-01-01T16:13:32.412Z,47.67
2023-01-01T16:16:06.639Z,47.38
2023-01-01T16:18:41.991Z,47.58
2023-01-01T16:21:12.621Z,47.45
2023-01-01T16:23:42.725Z,47.06
2023-01-01T16:26:14.014Z,47.31
2023-01-01T16:28:46.794Z,47.23
2023-01-01T16:31:19.514Z,47.02
2023-01-01T16:33:55.216Z,47.09
2023-01-01T16:36:27.470Z,47.15
2023-01-01T16:38:58.158Z,46.96
2023-01-01T16:41:30.599Z,46.88
2023-01-01T16:44:03.338Z,46.74
2023-01-01T16:46:33.749Z,46.73
2023-01-01T16:49:04.626Z,46.78
2023-01-01T16:51:35.303Z,46.93
2023-01-01T16:54:06.037Z,47.03
2023-01-01T16:56:56.211Z,47.06
2023-01-01T16:59:31.491Z,47.02
2023-01-01T17:02:01.643Z,47.06
2023-01-01T17:04:31.751Z,46.87
2023-01-01T17:07:01.734Z,47.24
2023-01-01T17:09:31.950Z,47.00
2023-01-01T17:12:02.006Z,47.04
2023-01-01T17:14:34.684Z,47.05
2023-01-01T17:17:05.110Z,47.26
2023-01-01T17:19:38.261Z,46.91
2023-01-01T17:22:10.733Z,47.10
2023-01-01T17:24:41.150Z,47.26
2023-01-01T17:27:11.589Z,47.31
2023-01-01T17:29:47.315Z,47.47
2023-01-01T17:32:20.116Z,47.44
2023-01-01T17:34:53.520Z,47.21
2023-01-01T17:37:27.810Z,47.21
2023-01-01T17:39:57.919Z,47.25
2023-01-01T17:42:28.936Z,47.33
2023-01-01T17:45:02.046Z,47.61
2023-01-01T17:47:33.603Z,47.40
2023-01-01T17:50:03.713Z,47.53
2023-01-01T17:52:34.227Z,47.98
2023-01-01T17:55:04.200Z,47.87
2023-01-01T17:57:34.104Z,47.81
2023-01-01T18:00:10.619Z,48.18
2023-01-01T18:02:44.263Z,48.13
2023-01-01T18:05:14.449Z,48.23
2023-01-01T18:07:45.808Z,48.16
2023-01-01T18:10:18.973Z,48.34
2023-01-01T18:12:49.133Z,48.36
2023-01-01T18:15:21.759Z,48.59
2023-01-01T18:17:53.922Z,48.80
2023-01-01T18:20:24.004Z,48.89
2023-01-01T18:22:57.953Z,48.54
2023-01-01T18:25:28.169Z,48.73
2023-01-01T18:27:58.871Z,48.68
2023-01-01T18:30:31.564Z,48.83
2023-01-01T18:33:01.563Z,48.70
2023-01-01T18:35:32.008Z,48.70
2023-01-01T18:38:02.335Z,48.79
2023-01-01T18:40:38.320Z,48.83
2023-01-01T18:43:13.180Z,49.03
2023-01-01T18:45:47.462Z,49.20
2023-01-01T18:48:24.576Z,49.50
2023-01-01T18:50:56.320Z,50.00
2023-01-01T18:53:26.888Z,49.74
2023-01-01T18:56:05.894Z,50.01
2023-01-01T18:58:36.060Z,49.74
2023-01-01T19:01:18.374Z,49.85
2023-01-01T19:03:51.064Z,49.69
2023-01-01T19:06:29.697Z,49.57
2023-01-01T19:09:11.255Z,49.63
2023-01-01T19:11:41.848Z,49.52
2023-01-01T19:14:17.983Z,49.37
2023-01-01T19:16:52.705Z,49.67
2023-01-01T19:19:24.605Z,49.63
2023-01-01T19:21:58.341Z,49.65
2023-01-01T19:24:31.108Z,49.51
2023-01-01T19:27:05.250Z,49.39
2023-01-01T19:29:40.322Z,49.74
2023-01-01T19:32:22.306Z,49.66
2023-01-01T19:34:52.451Z,49.75
2023-01-01T19:37:35.045Z,49.88
2023-01-01T19:40:05.177Z,49.97
2023-01-01T19:42:35.396Z,49.72
2023-01-01T19:45:08.355Z,49.57
2023-01-01T19:47:41.078Z,49.53
2023-01-01T19:50:12.097Z,49.43
2023-01-01T19:52:42.578Z,49.43
2023-01-01T19:55:16.470Z,49.45
2023-01-01T19:57:46.525Z,49.67
2023-01-01T20:00:17.868Z,49.80
2023-01-01T20:02:51.880Z,49.67
2023-01-01T20:05:33.274Z,49.78
2023-01-01T20:08:05.043Z,49.43
2023-01-01T20:10:35.256Z,49.49
2023-01-01T20:13:06.614Z,49.57
2023-01-01T20:15:40.483Z,49.68
2023-01-01T20:18:18.551Z,49.34
2023-01-01T20:21:00.795Z,49.85
2023-01-01T20:23:31.229Z,49.52
2023-01-01T20:26:03.208Z,49.50
2023-01-01T20:28:45.529Z,49.41
2023-01-01T20:31:16.915Z,49.42
2023-01-01T20:33:49.557Z,49.36
2023-01-01T20:36:44.069Z,49.96
2023-01-01T20:39:14.114Z,49.83
2023-01-01T20:41:44.237Z,49.87
2023-01-01T20:44:14.380Z,49.77
2023-01-01T20:46:48.332Z,49.58
2023-01-01T20:49:21.615Z,49.74
2023-01-01T20:51:53.996Z,49.76
2023-01-01T20:54:24.813Z,49.67
2023-01-01T20:56:55.069Z,49.88
2023-01-01T20:59:35.337Z,49.59
2023-01-01T21:02:08.284Z,49.67
2023-01-01T21:04:42.367Z,49.70
2023-01-01T21:07:14.018Z,49.52
2023-01-01T21:09:44.332Z,49.62
2023-01-01T21:12:14.517Z,49.69
2023-01-01T21:14:45.497Z,49.57
2023-01-01T21:17:22.908Z,49.52
2023-01-01T21:19:59.077Z,49.62
2023-01-01T21:22:30.378Z,49.60
2023-01-01T21:25:23.894Z,49.60
2023-01-01T21:27:50.519Z,49.37
2023-01-01T21:30:21.091Z,49.64
2023-01-01T21:32:52.271Z,49.78
2023-01-01T21:35:26.575Z,49.85
2023-01-01T21:38:00.143Z,49.84
2023-01-01T21:40:41.206Z,49.83
2023-01-01T21:43:29.065Z,49.71
2023-01-01T21:46:02.787Z,49.94
2023-01-01T21:48:35.272Z,50.10
2023-01-01T21:51:19.641Z,50.14
2023-01-01T21:53:49.754Z,50.12
2023-01-01T21:56:38.705Z,50.09
2023-01-01T21:59:30.272Z,50.15
2023-01-01T22:02:26.236Z,50.14
2023-01-01T22:04:56.317Z,50.10
2023-01-01T22:07:57.386Z,50.38
2023-01-01T22:10:25.770Z,50.38
2023-01-01T22:13:00.107Z,50.52
2023-01-01T22:15:41.086Z,50.47
2023-01-01T22:18:24.645Z,50.43
2023-01-01T22:20:54.668Z,50.48
2023-01-01T22:23:37.442Z,50.62
2023-01-01T22:26:17.336Z,50.91
2023-01-01T22:28:50.183Z,50.68
2023-01-01T22:31:23.974Z,50.59
2023-01-01T22:33:57.228Z,50.64
2023-01-01T22:36:28.853Z,50.95
2023-01-01T22:39:04.547Z,51.01
2023-01-01T22:41:34.500Z,50.90
2023-01-01T22:44:07.114Z,50.94
2023-01-01T22:46:39.724Z,50.91
2023-01-01T22:49:18.433Z,50.91
2023-01-01T22:51:49.754Z,50.85
2023-01-01T22:54:22.354Z,51.00
2023-01-01T22:56:53.060Z,51.01
2023-01-01T22:59:23.027Z,50.99
2023-01-01T23:01:52.970Z,51.17
2023-01-01T23:04:23.087Z,51.24
2023-01-01T23:06:53.153Z,51.08
2023-01-01T23:09:27.222Z,51.17
2023-01-01T23:11:57.997Z,51.43
2023-01-01T23:14:40.593Z,51.13
2023-01-01T23:17:10.611Z,50.95
2023-01-01T23:19:40.613Z,50.96
2023-01-01T23:22:10.666Z,50.89
2023-01-01T23:24:43.333Z,50.93
2023-01-01T23:27:15.022Z,50.81
2023-01-01T23:29:48.785Z,50.61
2023-01-01T23:32:19.240Z,50.14
2023-01-01T23:34:49.955Z,50.60
2023-01-01T23:37:19.969Z,50.56
2023-01-01T23:39:52.582Z,50.77
2023-01-01T23:42:22.669Z,50.97
2023-01-01T23:44:53.392Z,51.21
2023-01-01T23:47:30.576Z,50.87
2023-01-01T23:50:00.818Z,50.94
2023-01-01T23:52:31.313Z,50.62
2023-01-01T23:55:03.884Z,50.43
2023-01-01T23:57:33.907Z,50.41
